Time;durP1;ratioP1;P1;durP2;ratioP2;P2;SDS_P1;SDS_P2;PMS_P1;PMS_P2;Temp;Humidity;BMP_temperature;BMP_pressure;BME280_temperature;BME280_humidity;BME280_pressure;Samples;Min_cycle;Max_cycle;Signal;HPM_P1;HPM_P2
2022/11/28 00:00:27;;;;;;;13.47;12.17;;;6.00;99.90;;;;;;5027004;28;20229;-83
2022/11/28 00:02:53;;;;;;;12.00;10.90;;;5.90;99.90;;;;;;5026876;28;20210;-84
2022/11/28 00:05:19;;;;;;;14.53;12.33;;;5.90;99.90;;;;;;5026784;28;20196;-84
2022/11/28 00:07:44;;;;;;;13.10;11.80;;;6.10;99.90;;;;;;5026921;28;20261;-83
2022/11/28 00:10:10;;;;;;;12.27;11.07;;;6.00;99.90;;;;;;5026903;28;20190;-83
2022/11/28 00:12:36;;;;;;;12.67;11.37;;;6.00;99.90;;;;;;5026408;28;20773;-81
2022/11/28 00:15:03;;;;;;;10.97;9.97;;;6.00;99.90;;;;;;5026155;28;20190;-83
2022/11/28 00:17:29;;;;;;;11.40;10.30;;;6.10;99.90;;;;;;5014328;28;20188;-83
2022/11/28 00:19:55;;;;;;;11.87;10.77;;;6.20;99.90;;;;;;5026482;28;20189;-84
2022/11/28 00:22:21;;;;;;;11.73;10.53;;;6.20;99.90;;;;;;5025825;28;20224;-82
2022/11/28 00:24:46;;;;;;;11.33;10.23;;;6.20;99.90;;;;;;5025219;28;20205;-82
2022/11/28 00:27:12;;;;;;;12.30;11.10;;;6.20;99.90;;;;;;5026206;28;20214;-82
2022/11/28 00:29:38;;;;;;;12.07;10.93;;;6.10;99.90;;;;;;5009101;28;20194;-83
2022/11/28 00:32:05;;;;;;;12.03;10.83;;;6.00;99.90;;;;;;5026900;28;20210;-83
2022/11/28 00:34:30;;;;;;;12.30;11.03;;;5.90;99.90;;;;;;5027310;28;20216;-83
2022/11/28 00:36:56;;;;;;;12.13;11.03;;;5.80;99.90;;;;;;5027045;28;20201;-83
2022/11/28 00:39:22;;;;;;;10.73;9.63;;;5.80;99.90;;;;;;5026370;28;20898;-83
2022/11/28 00:41:48;;;;;;;12.33;11.13;;;6.00;99.90;;;;;;5026240;28;20281;-83
2022/11/28 00:44:14;;;;;;;11.27;10.27;;;6.10;99.90;;;;;;5026751;28;20201;-83
2022/11/28 00:46:40;;;;;;;11.83;10.63;;;6.10;99.90;;;;;;5026050;28;20646;-82
2022/11/28 00:49:05;;;;;;;11.87;10.67;;;6.10;99.90;;;;;;5026529;28;20189;-82
2022/11/28 00:51:33;;;;;;;11.40;10.27;;;6.10;99.90;;;;;;5025790;28;20220;-84
2022/11/28 00:54:01;;;;;;;13.10;11.73;;;6.10;99.90;;;;;;5026303;28;20239;-82
2022/11/28 00:56:30;;;;;;;11.30;10.20;;;6.20;99.90;;;;;;5022600;28;20173;-82
2022/11/28 00:58:56;;;;;;;12.10;10.97;;;6.20;99.90;;;;;;5026127;28;20182;-82
2022/11/28 01:01:26;;;;;;;11.80;10.70;;;6.10;99.90;;;;;;5024910;28;20233;-83
2022/11/28 01:03:54;;;;;;;11.60;10.57;;;6.20;99.90;;;;;;5025641;28;20884;-84
2022/11/28 01:06:32;;;;;;;12.33;11.23;;;6.20;99.90;;;;;;5026162;28;20304;-84
2022/11/28 01:09:00;;;;;;;14.17;12.77;;;6.30;99.90;;;;;;5030964;28;20247;-83
2022/11/28 01:11:27;;;;;;;11.07;10.07;;;6.00;99.90;;;;;;5025529;28;20209;-83
2022/11/28 01:13:55;;;;;;;15.40;13.23;;;6.00;99.90;;;;;;5024862;28;20228;-82
2022/11/28 01:16:21;;;;;;;13.13;11.80;;;5.80;99.90;;;;;;5025552;28;20213;-82
2022/11/28 01:18:47;;;;;;;12.20;10.90;;;5.70;99.90;;;;;;5025100;28;20201;-82
2022/11/28 01:21:13;;;;;;;11.80;10.53;;;5.80;99.90;;;;;;5026020;28;20247;-82
2022/11/28 01:23:38;;;;;;;14.17;12.73;;;5.80;99.90;;;;;;5024768;28;20225;-83
2022/11/28 01:26:06;;;;;;;13.20;11.90;;;5.80;99.90;;;;;;5026614;28;20335;-84
2022/11/28 01:28:33;;;;;;;13.10;11.90;;;5.70;99.90;;;;;;5021204;28;20169;-82
2022/11/28 01:31:12;;;;;;;12.13;11.03;;;5.90;99.90;;;;;;5021035;28;20266;-83
2022/11/28 01:33:38;;;;;;;14.63;12.40;;;6.00;99.90;;;;;;5022775;28;20189;-82
2022/11/28 01:36:04;;;;;;;13.60;12.20;;;6.00;99.90;;;;;;5025158;28;20189;-82
2022/11/28 01:38:30;;;;;;;13.90;12.47;;;6.10;99.90;;;;;;5023785;28;20191;-83
2022/11/28 01:40:57;;;;;;;13.43;12.03;;;6.10;99.90;;;;;;5024930;28;20686;-83
2022/11/28 01:43:23;;;;;;;12.90;11.60;;;6.00;99.90;;;;;;5022611;28;20557;-82
2022/11/28 01:45:50;;;;;;;13.57;12.27;;;6.10;99.90;;;;;;5026887;28;20190;-83
2022/11/28 01:48:26;;;;;;;14.30;12.83;;;6.10;99.90;;;;;;5026800;28;20277;-83
2022/11/28 01:50:57;;;;;;;14.27;12.60;;;6.20;99.90;;;;;;5026065;28;20235;-84
2022/11/28 01:53:27;;;;;;;15.87;14.17;;;6.20;99.90;;;;;;5025493;28;20257;-81
2022/11/28 01:56:01;;;;;;;14.30;12.63;;;6.10;99.90;;;;;;5025301;28;20174;-83
2022/11/28 01:58:28;;;;;;;16.07;14.37;;;6.10;99.90;;;;;;5024089;28;20181;-84
2022/11/28 02:00:54;;;;;;;14.40;12.93;;;6.10;99.90;;;;;;5022161;28;20221;-83
2022/11/28 02:03:38;;;;;;;16.00;14.13;;;5.90;99.90;;;;;;5025427;28;20190;-83
2022/11/28 02:06:04;;;;;;;13.50;12.20;;;6.00;99.90;;;;;;5024962;28;20178;-83
2022/11/28 02:08:34;;;;;;;12.40;11.10;;;6.00;99.90;;;;;;5024812;28;20204;-83
2022/11/28 02:11:20;;;;;;;13.27;12.07;;;6.00;99.90;;;;;;5024551;28;20277;-83
2022/11/28 02:14:04;;;;;;;12.47;11.17;;;5.90;99.90;;;;;;5024323;28;20181;-82
2022/11/28 02:16:36;;;;;;;13.33;12.13;;;5.80;99.90;;;;;;5023221;28;20228;-83
2022/11/28 02:19:14;;;;;;;13.17;11.87;;;5.90;99.90;;;;;;5024943;28;20200;-83
2022/11/28 02:22:04;;;;;;;13.70;12.20;;;5.90;99.90;;;;;;5021178;28;20259;-83
2022/11/28 02:24:45;;;;;;;12.47;11.33;;;5.90;99.90;;;;;;5021882;28;20205;-82
2022/11/28 02:27:37;;;;;;;13.27;11.77;;;5.90;99.90;;;;;;5020399;28;20200;-83
2022/11/28 02:30:21;;;;;;;13.27;11.97;;;5.90;99.90;;;;;;5022011;28;20181;-84
2022/11/28 02:33:07;;;;;;;12.40;11.17;;;6.00;99.90;;;;;;5010202;28;20288;-83
2022/11/28 02:35:37;;;;;;;13.00;11.80;;;6.00;99.90;;;;;;5020649;28;20186;-82
2022/11/28 02:38:22;;;;;;;13.30;12.00;;;6.10;99.90;;;;;;5002855;28;20230;-83
2022/11/28 02:41:00;;;;;;;13.57;12.17;;;6.10;99.90;;;;;;5017897;28;20188;-83
2022/11/28 02:43:35;;;;;;;12.40;11.13;;;6.00;99.90;;;;;;5023100;28;20663;-83
2022/11/28 02:46:11;;;;;;;13.30;12.03;;;6.00;99.90;;;;;;5017772;28;20220;-83
2022/11/28 02:48:39;;;;;;;13.60;12.20;;;5.90;99.90;;;;;;5015990;28;20212;-83
2022/11/28 02:51:28;;;;;;;13.47;12.03;;;5.90;99.90;;;;;;5025054;28;20209;-82
2022/11/28 02:53:55;;;;;;;13.10;11.80;;;5.90;99.90;;;;;;5014005;28;20225;-82
2022/11/28 02:56:24;;;;;;;13.73;12.20;;;6.00;99.90;;;;;;5026604;28;20197;-83
2022/11/28 02:58:49;;;;;;;13.97;12.67;;;6.00;99.90;;;;;;5027099;28;20174;-82
2022/11/28 03:01:29;;;;;;;13.43;11.67;;;6.10;99.90;;;;;;5025846;28;20316;-82
2022/11/28 03:04:25;;;;;;;13.20;11.77;;;5.90;99.90;;;;;;5029402;28;20178;-83
2022/11/28 03:07:09;;;;;;;12.53;11.23;;;5.80;99.90;;;;;;5025614;28;20216;-83
2022/11/28 03:09:55;;;;;;;12.67;11.40;;;5.70;99.90;;;;;;5036385;28;20177;-83
2022/11/28 03:12:29;;;;;;;12.90;11.63;;;5.60;99.90;;;;;;5029749;28;20217;-84
2022/11/28 03:15:01;;;;;;;12.03;10.93;;;5.60;99.90;;;;;;5026503;28;20186;-82
2022/11/28 03:17:32;;;;;;;14.00;12.70;;;5.70;99.90;;;;;;5025832;28;20261;-83
2022/11/28 03:20:20;;;;;;;13.90;12.53;;;5.70;99.90;;;;;;5026166;28;20205;-84
2022/11/28 03:23:04;;;;;;;13.47;12.10;;;5.60;99.90;;;;;;5004302;28;20233;-84
2022/11/28 03:25:45;;;;;;;14.20;12.80;;;5.50;99.90;;;;;;5021361;28;20224;-82
2022/11/28 03:28:19;;;;;;;12.80;11.60;;;5.20;99.90;;;;;;5022377;28;20186;-83
2022/11/28 03:30:49;;;;;;;14.27;12.83;;;5.20;99.90;;;;;;5026344;28;20197;-84
2022/11/28 03:33:17;;;;;;;13.07;11.77;;;5.40;99.90;;;;;;5026388;28;20192;-84
2022/11/28 03:35:48;;;;;;;13.07;10.87;;;5.40;99.90;;;;;;5026325;28;20181;-83
2022/11/28 03:38:31;;;;;;;13.67;12.20;;;5.40;99.90;;;;;;5026233;28;20250;-82
2022/11/28 03:41:03;;;;;;;17.50;13.30;;;5.40;99.90;;;;;;5025885;28;20244;-83
2022/11/28 03:43:35;;;;;;;16.90;14.70;;;5.40;99.90;;;;;;5026024;28;20201;-83
2022/11/28 03:46:06;;;;;;;16.80;14.53;;;5.30;99.90;;;;;;5025520;28;20193;-82
2022/11/28 03:48:40;;;;;;;20.27;16.43;;;5.40;99.90;;;;;;5025080;28;20174;-83
2022/11/28 03:51:17;;;;;;;20.73;16.60;;;5.40;99.90;;;;;;5013973;28;20201;-83
2022/11/28 03:54:05;;;;;;;19.53;15.87;;;5.40;99.90;;;;;;5024638;28;20189;-84
2022/11/28 03:56:37;;;;;;;15.90;13.80;;;5.40;99.90;;;;;;5025161;28;20177;-83
2022/11/28 03:59:09;;;;;;;18.00;14.93;;;5.40;99.90;;;;;;5025580;28;20193;-83
2022/11/28 04:01:50;;;;;;;16.20;13.97;;;5.40;99.90;;;;;;5026639;28;20284;-83
2022/11/28 04:04:30;;;;;;;17.23;14.70;;;5.50;99.90;;;;;;5025775;28;20189;-82
2022/11/28 04:07:31;;;;;;;15.03;12.70;;;5.50;99.90;;;;;;5017793;28;20522;-84
2022/11/28 04:10:21;;;;;;;16.17;14.53;;;5.70;99.90;;;;;;5022115;28;20239;-82
2022/11/28 04:12:47;;;;;;;15.60;14.00;;;5.70;99.90;;;;;;5009467;28;20224;-84
2022/11/28 04:15:39;;;;;;;18.77;16.73;;;5.70;99.90;;;;;;5009712;28;20185;-83
2022/11/28 04:18:17;;;;;;;15.77;13.70;;;5.70;99.90;;;;;;5019332;28;20267;-84
2022/11/28 04:20:46;;;;;;;13.13;11.63;;;5.70;99.90;;;;;;5025808;28;20188;-84
2022/11/28 04:23:15;;;;;;;15.23;12.90;;;5.70;99.90;;;;;;5024237;28;20209;-82
2022/11/28 04:25:48;;;;;;;15.27;13.67;;;5.70;99.90;;;;;;5025165;28;20186;-83
2022/11/28 04:28:19;;;;;;;14.83;12.80;;;5.80;99.90;;;;;;5023914;28;20323;-83
2022/11/28 04:30:47;;;;;;;15.73;13.57;;;5.80;99.90;;;;;;5025241;28;20189;-83
2022/11/28 04:33:17;;;;;;;16.77;14.03;;;5.70;99.90;;;;;;5024447;28;20208;-85
2022/11/28 04:35:49;;;;;;;19.97;16.33;;;5.70;99.90;;;;;;5013604;28;20178;-83
2022/11/28 04:38:15;;;;;;;15.90;13.67;;;5.60;99.90;;;;;;5021747;28;20660;-83
2022/11/28 04:40:51;;;;;;;15.03;13.43;;;5.60;99.90;;;;;;5007572;28;20285;-84
2022/11/28 04:43:23;;;;;;;15.80;13.20;;;5.60;99.90;;;;;;5025573;28;20253;-83
2022/11/28 04:45:52;;;;;;;14.60;12.87;;;5.60;99.90;;;;;;5025197;28;20181;-82
2022/11/28 04:48:18;;;;;;;14.97;13.47;;;5.60;99.90;;;;;;5024525;28;20205;-83
2022/11/28 04:51:08;;;;;;;17.03;14.30;;;5.60;99.90;;;;;;5021960;28;20789;-84
2022/11/28 04:54:09;;;;;;;15.80;13.47;;;5.70;99.90;;;;;;5024985;28;20185;-82
2022/11/28 04:56:48;;;;;;;14.03;12.57;;;5.70;99.90;;;;;;4992615;28;20186;-83
2022/11/28 04:59:14;;;;;;;14.63;13.17;;;5.80;99.90;;;;;;5022847;28;20192;-82
2022/11/28 05:01:42;;;;;;;16.43;13.93;;;5.80;99.90;;;;;;5024065;28;20302;-83
2022/11/28 05:04:09;;;;;;;15.53;13.57;;;5.80;99.90;;;;;;5024859;28;20273;-85
2022/11/28 05:06:35;;;;;;;17.23;14.10;;;5.80;99.90;;;;;;5024563;28;20207;-81
2022/11/28 05:09:03;;;;;;;15.70;14.03;;;5.70;99.90;;;;;;5024299;28;20231;-83
2022/11/28 05:11:29;;;;;;;17.47;15.27;;;5.70;99.90;;;;;;5020081;28;20220;-83
2022/11/28 05:13:55;;;;;;;16.53;14.87;;;5.70;99.90;;;;;;5022883;28;20193;-83
2022/11/28 05:16:22;;;;;;;15.30;13.67;;;5.60;99.90;;;;;;5024061;28;20232;-83
2022/11/28 05:18:48;;;;;;;21.00;15.43;;;5.70;99.90;;;;;;5024998;28;20260;-84
2022/11/28 05:21:14;;;;;;;14.63;13.13;;;5.70;99.90;;;;;;5024921;28;20217;-83
2022/11/28 05:23:42;;;;;;;15.53;13.57;;;5.70;99.90;;;;;;5024565;28;20429;-83
2022/11/28 05:26:10;;;;;;;18.57;16.67;;;5.80;99.90;;;;;;5026231;28;20205;-84
2022/11/28 05:28:36;;;;;;;17.77;15.90;;;5.70;99.90;;;;;;5024415;28;20182;-83
2022/11/28 05:31:02;;;;;;;16.30;14.57;;;5.70;99.90;;;;;;5023711;28;20292;-83
2022/11/28 05:33:29;;;;;;;16.37;14.77;;;5.70;99.90;;;;;;5025329;28;20178;-83
2022/11/28 05:35:56;;;;;;;15.67;14.13;;;5.60;99.90;;;;;;5022267;28;20189;-83
2022/11/28 05:38:22;;;;;;;15.73;14.13;;;5.60;99.90;;;;;;5023151;28;20181;-85
2022/11/28 05:40:48;;;;;;;17.57;15.77;;;5.60;99.90;;;;;;5023179;28;20188;-82
2022/11/28 05:43:13;;;;;;;21.10;17.20;;;5.50;99.90;;;;;;5022274;28;20181;-82
2022/11/28 05:45:40;;;;;;;14.73;13.23;;;5.60;99.90;;;;;;5021170;28;20212;-82
2022/11/28 05:48:06;;;;;;;14.13;12.83;;;5.50;99.90;;;;;;5005339;28;20189;-83
2022/11/28 05:50:32;;;;;;;14.90;13.47;;;5.50;99.90;;;;;;5023612;28;20181;-83
2022/11/28 05:52:57;;;;;;;15.97;14.00;;;5.50;99.90;;;;;;5023127;28;20209;-83
2022/11/28 05:55:23;;;;;;;12.77;11.47;;;5.60;99.90;;;;;;5022606;28;20664;-83
2022/11/28 05:57:49;;;;;;;13.93;12.53;;;5.50;99.90;;;;;;5023803;28;20189;-83
2022/11/28 06:00:15;;;;;;;14.47;13.07;;;5.50;99.90;;;;;;5023232;28;20190;-81
2022/11/28 06:02:40;;;;;;;13.93;12.63;;;5.50;99.90;;;;;;5023756;28;20557;-83
2022/11/28 06:05:06;;;;;;;14.33;12.23;;;5.40;99.90;;;;;;5022427;28;20181;-82
2022/11/28 06:07:32;;;;;;;14.80;13.37;;;5.50;99.90;;;;;;5023463;28;20206;-83
2022/11/28 06:09:58;;;;;;;15.30;13.70;;;5.50;99.90;;;;;;5022191;28;20636;-83
2022/11/28 06:12:23;;;;;;;13.50;12.10;;;5.50;99.90;;;;;;5022105;28;20213;-84
2022/11/28 06:14:49;;;;;;;18.47;15.30;;;5.40;99.90;;;;;;5022911;28;20189;-82
2022/11/28 06:17:14;;;;;;;17.43;15.73;;;5.30;99.90;;;;;;5021824;28;20232;-83
2022/11/28 06:19:40;;;;;;;13.63;12.23;;;5.40;99.90;;;;;;5022583;28;20200;-82
2022/11/28 06:22:06;;;;;;;13.97;12.50;;;5.40;99.90;;;;;;5022144;28;20209;-83
2022/11/28 06:24:31;;;;;;;13.40;12.03;;;5.30;99.90;;;;;;5029139;28;20208;-82
2022/11/28 06:26:57;;;;;;;18.60;16.80;;;5.30;99.90;;;;;;5006839;28;20830;-83
2022/11/28 06:29:23;;;;;;;19.40;14.33;;;5.30;99.90;;;;;;5026515;28;20678;-82
2022/11/28 06:31:48;;;;;;;13.27;11.90;;;5.30;99.90;;;;;;5025393;28;20232;-82
2022/11/28 06:34:14;;;;;;;14.40;13.10;;;5.30;99.90;;;;;;5026964;28;20185;-82
2022/11/28 06:36:40;;;;;;;13.30;12.10;;;5.40;99.90;;;;;;5026259;28;20451;-82
2022/11/28 06:39:05;;;;;;;15.37;13.10;;;5.40;99.90;;;;;;5026750;28;20244;-82
2022/11/28 06:41:31;;;;;;;13.17;11.83;;;5.40;99.90;;;;;;5025529;28;20264;-82
2022/11/28 06:43:57;;;;;;;15.20;13.80;;;5.30;99.90;;;;;;5026324;28;20195;-83
2022/11/28 06:46:22;;;;;;;13.90;12.40;;;5.30;99.90;;;;;;5026686;28;20208;-82
2022/11/28 06:48:50;;;;;;;14.40;11.90;;;5.30;99.90;;;;;;5028267;28;20184;-83
2022/11/28 06:51:17;;;;;;;12.63;11.27;;;5.30;99.90;;;;;;5026872;28;20221;-85
2022/11/28 06:53:43;;;;;;;12.07;10.97;;;5.50;99.90;;;;;;5028185;28;20276;-82
2022/11/28 06:56:13;;;;;;;12.13;11.03;;;5.50;99.90;;;;;;5027139;28;20213;-83
2022/11/28 06:58:39;;;;;;;12.70;11.37;;;5.50;99.90;;;;;;5026628;28;20194;-83
2022/11/28 07:01:16;;;;;;;13.77;12.33;;;5.40;99.90;;;;;;5024701;28;20285;-83
2022/11/28 07:03:43;;;;;;;12.33;11.10;;;5.40;99.90;;;;;;5022941;28;20200;-83
2022/11/28 07:06:09;;;;;;;15.10;12.77;;;5.40;99.90;;;;;;5029553;28;20181;-82
2022/11/28 07:08:36;;;;;;;12.70;11.50;;;5.40;99.90;;;;;;5027217;28;20206;-82
2022/11/28 07:11:20;;;;;;;16.07;13.20;;;5.40;99.90;;;;;;5028125;28;20210;-83
2022/11/28 07:13:47;;;;;;;15.60;13.90;;;5.40;99.90;;;;;;5034361;28;20181;-82
2022/11/28 07:16:17;;;;;;;12.37;11.27;;;5.50;99.90;;;;;;5033407;28;20189;-83
2022/11/28 07:18:44;;;;;;;13.13;11.90;;;5.50;99.90;;;;;;5030508;28;20228;-82
2022/11/28 07:21:10;;;;;;;13.00;11.70;;;5.40;99.90;;;;;;5024230;28;20272;-82
2022/11/28 07:23:36;;;;;;;13.17;11.87;;;5.30;99.90;;;;;;5024826;28;20197;-83
2022/11/28 07:26:03;;;;;;;14.57;13.07;;;5.40;99.90;;;;;;5026876;28;20212;-83
2022/11/28 07:28:30;;;;;;;12.37;11.17;;;5.40;99.90;;;;;;5024210;28;20193;-83
2022/11/28 07:31:09;;;;;;;13.10;11.80;;;5.50;99.90;;;;;;5025268;28;20205;-81
2022/11/28 07:33:38;;;;;;;12.63;11.47;;;5.50;99.90;;;;;;5023749;28;20173;-81
2022/11/28 07:36:08;;;;;;;14.97;12.67;;;5.50;99.90;;;;;;5026312;28;20181;-83
2022/11/28 07:38:34;;;;;;;12.07;10.83;;;5.60;99.90;;;;;;5025620;28;20223;-83
2022/11/28 07:41:05;;;;;;;16.13;12.97;;;5.60;99.90;;;;;;5024578;28;20209;-81
2022/11/28 07:43:31;;;;;;;13.83;12.53;;;5.50;99.90;;;;;;5021809;28;20276;-85
2022/11/28 07:45:57;;;;;;;13.23;11.83;;;5.40;99.90;;;;;;5024542;28;20718;-81
2022/11/28 07:48:23;;;;;;;14.20;12.17;;;5.50;99.90;;;;;;5021194;28;20247;-82
2022/11/28 07:50:49;;;;;;;12.87;11.50;;;5.50;99.90;;;;;;5007385;28;20185;-82
2022/11/28 07:53:14;;;;;;;13.17;11.80;;;5.50;99.90;;;;;;5023560;28;20178;-82
2022/11/28 07:55:40;;;;;;;12.03;10.93;;;5.50;99.90;;;;;;5023771;28;20373;-84
2022/11/28 07:58:06;;;;;;;13.33;12.03;;;5.40;99.90;;;;;;5022696;28;20201;-82
2022/11/28 08:00:32;;;;;;;13.97;12.40;;;5.40;99.90;;;;;;5023739;28;20178;-82
2022/11/28 08:02:58;;;;;;;17.20;15.33;;;5.30;99.90;;;;;;5005819;28;20232;-82
2022/11/28 08:05:23;;;;;;;13.77;11.17;;;5.30;99.90;;;;;;5023123;28;20189;-82
2022/11/28 08:07:50;;;;;;;11.93;10.53;;;5.20;99.90;;;;;;5021753;28;20193;-82
2022/11/28 08:10:16;;;;;;;11.63;10.53;;;5.40;99.90;;;;;;5023777;28;20201;-82
2022/11/28 08:12:45;;;;;;;12.40;10.83;;;5.50;99.90;;;;;;5024489;28;20731;-83
2022/11/28 08:15:10;;;;;;;12.97;11.77;;;5.50;99.90;;;;;;5024684;28;20193;-81
2022/11/28 08:17:36;;;;;;;12.13;10.87;;;5.50;99.90;;;;;;5026982;28;20204;-82
2022/11/28 08:20:02;;;;;;;12.47;10.77;;;5.50;99.90;;;;;;5025071;28;20177;-82
2022/11/28 08:22:28;;;;;;;12.40;11.10;;;5.60;99.90;;;;;;5025674;28;20206;-82
2022/11/28 08:24:54;;;;;;;13.03;11.73;;;5.70;99.90;;;;;;5026060;28;20284;-84
2022/11/28 08:27:19;;;;;;;13.13;11.83;;;5.80;99.90;;;;;;5029611;28;20212;-82
2022/11/28 08:29:45;;;;;;;11.93;10.57;;;5.70;99.90;;;;;;5024975;28;20192;-81
2022/11/28 08:32:11;;;;;;;11.20;10.17;;;5.70;99.90;;;;;;5025001;28;20216;-82
2022/11/28 08:34:36;;;;;;;12.40;11.10;;;5.70;99.90;;;;;;5026234;28;20185;-82
2022/11/28 08:37:02;;;;;;;11.40;10.27;;;5.80;99.90;;;;;;5025686;28;20704;-82
2022/11/28 08:39:29;;;;;;;12.00;10.90;;;5.80;99.90;;;;;;5024274;28;20185;-83
2022/11/28 08:41:58;;;;;;;11.00;9.90;;;5.80;99.90;;;;;;5024976;28;20240;-81
2022/11/28 08:44:25;;;;;;;10.83;9.83;;;5.70;99.90;;;;;;5024566;28;20276;-81
2022/11/28 08:46:51;;;;;;;12.40;11.20;;;5.90;99.90;;;;;;5023996;28;20198;-81
2022/11/28 08:49:17;;;;;;;11.57;10.03;;;5.80;99.90;;;;;;5022221;28;20186;-82
2022/11/28 08:51:42;;;;;;;12.73;10.47;;;5.90;99.90;;;;;;5022146;28;20233;-82
2022/11/28 08:54:08;;;;;;;11.67;10.53;;;6.00;99.90;;;;;;5022098;28;20186;-82
2022/11/28 08:56:35;;;;;;;11.67;10.57;;;6.00;99.90;;;;;;5021824;28;20190;-82
2022/11/28 08:59:01;;;;;;;11.60;10.50;;;6.00;99.90;;;;;;5022010;28;20677;-83
2022/11/28 09:01:27;;;;;;;13.13;11.83;;;5.90;99.90;;;;;;5022638;28;20210;-84
2022/11/28 09:03:54;;;;;;;13.83;12.53;;;5.90;99.90;;;;;;5022879;28;20189;-82
2022/11/28 09:06:21;;;;;;;13.40;12.10;;;5.90;99.90;;;;;;5020648;28;20473;-80
2022/11/28 09:08:48;;;;;;;12.73;11.53;;;5.70;99.90;;;;;;5022334;28;20241;-82
2022/11/28 09:11:16;;;;;;;11.87;10.77;;;5.90;99.90;;;;;;5021079;28;20271;-85
2022/11/28 09:13:42;;;;;;;12.07;10.97;;;5.90;99.90;;;;;;5021689;28;20662;-85
2022/11/28 09:16:08;;;;;;;10.90;9.90;;;5.90;99.90;;;;;;5023035;28;20228;-83
2022/11/28 09:18:34;;;;;;;11.80;10.80;;;6.00;99.90;;;;;;5021492;28;20190;-84
2022/11/28 09:21:01;;;;;;;11.43;10.40;;;6.00;99.90;;;;;;5021250;28;20277;-81
2022/11/28 09:23:28;;;;;;;13.03;11.27;;;6.00;99.90;;;;;;5020110;28;20201;-82
2022/11/28 09:25:55;;;;;;;11.93;10.83;;;6.10;99.90;;;;;;5021900;28;20216;-82
2022/11/28 09:28:20;;;;;;;11.90;10.80;;;6.10;99.90;;;;;;5023061;28;20216;-84
2022/11/28 09:30:46;;;;;;;11.77;10.57;;;6.10;99.90;;;;;;5022663;28;20182;-82
2022/11/28 09:33:12;;;;;;;11.87;10.77;;;6.10;99.90;;;;;;5021896;28;20194;-83
2022/11/28 09:35:38;;;;;;;12.17;11.07;;;6.20;99.90;;;;;;5021482;28;20190;-83
2022/11/28 09:38:04;;;;;;;12.33;11.17;;;6.20;99.90;;;;;;5021033;28;20198;-83
2022/11/28 09:40:40;;;;;;;12.80;11.47;;;6.20;99.90;;;;;;5021192;28;20192;-83
2022/11/28 09:43:25;;;;;;;13.60;12.20;;;6.00;99.90;;;;;;5019368;28;20205;-83
2022/11/28 09:45:52;;;;;;;13.70;12.17;;;5.90;99.90;;;;;;5018782;28;20189;-83
2022/11/28 09:48:40;;;;;;;12.70;11.23;;;5.90;99.90;;;;;;5020934;28;20549;-83
2022/11/28 09:51:22;;;;;;;13.47;12.23;;;5.90;99.90;;;;;;5018866;28;20216;-81
2022/11/28 09:54:21;;;;;;;14.47;12.93;;;5.90;99.90;;;;;;5020036;28;20205;-83
2022/11/28 09:56:49;;;;;;;13.60;12.40;;;6.10;99.90;;;;;;5020315;28;20246;-82
2022/11/28 09:59:26;;;;;;;13.00;11.63;;;6.20;99.90;;;;;;5020462;28;20682;-83
2022/11/28 10:02:13;;;;;;;13.70;12.30;;;6.20;99.90;;;;;;5021490;28;20315;-82
2022/11/28 10:04:57;;;;;;;11.50;10.50;;;6.10;99.90;;;;;;5016382;28;20204;-81
2022/11/28 10:07:51;;;;;;;13.47;11.97;;;6.10;99.90;;;;;;5003284;28;20260;-83
2022/11/28 10:10:34;;;;;;;14.10;12.03;;;6.40;99.90;;;;;;5020042;28;20185;-83
2022/11/28 10:13:45;;;;;;;13.97;12.57;;;6.50;99.90;;;;;;5015811;28;20244;-83
2022/11/28 10:16:21;;;;;;;14.27;12.43;;;6.70;99.90;;;;;;5007095;28;20303;-81
2022/11/28 10:18:50;;;;;;;13.83;12.37;;;6.70;99.90;;;;;;5020647;28;20205;-81
2022/11/28 10:21:37;;;;;;;11.77;10.67;;;6.70;99.90;;;;;;5020858;28;20394;-82
2022/11/28 10:24:16;;;;;;;11.30;10.20;;;6.60;99.90;;;;;;5021792;28;20201;-85
2022/11/28 10:26:46;;;;;;;11.67;10.57;;;6.50;99.90;;;;;;5005270;28;20212;-82
2022/11/28 10:29:21;;;;;;;10.60;9.50;;;6.60;99.90;;;;;;5019810;28;20216;-82
2022/11/28 10:31:49;;;;;;;10.77;9.70;;;6.80;99.90;;;;;;5017736;28;20208;-83
2022/11/28 10:34:30;;;;;;;11.00;10.00;;;6.90;99.90;;;;;;5021675;28;20189;-82
2022/11/28 10:36:58;;;;;;;10.60;9.23;;;6.80;99.90;;;;;;5021381;28;20189;-82
2022/11/28 10:39:25;;;;;;;10.00;9.00;;;6.90;99.90;;;;;;5021800;28;20394;-83
2022/11/28 10:42:55;;;;;;;9.33;8.43;;;6.90;99.90;;;;;;5020925;28;20804;-83
2022/11/28 10:45:21;;;;;;;9.40;8.23;;;7.00;99.90;;;;;;4916640;29;20207;-83
2022/11/28 10:47:55;;;;;;;9.90;8.97;;;7.00;99.90;;;;;;4923794;29;20193;-83
2022/11/28 10:50:36;;;;;;;10.53;9.00;;;6.90;99.90;;;;;;4974945;28;20198;-83
2022/11/28 10:53:15;;;;;;;8.97;8.10;;;7.10;99.90;;;;;;5021718;28;20257;-83
2022/11/28 10:56:01;;;;;;;10.03;7.73;;;7.30;99.90;;;;;;5014135;28;20189;-84
2022/11/28 10:58:35;;;;;;;9.77;8.87;;;7.40;99.90;;;;;;5015996;28;20190;-83
2022/11/28 11:01:02;;;;;;;10.50;9.47;;;7.40;99.90;;;;;;5021659;28;20209;-83
2022/11/28 11:03:31;;;;;;;10.90;9.87;;;7.20;99.90;;;;;;5021152;28;20193;-83
2022/11/28 11:05:58;;;;;;;10.57;9.33;;;7.30;99.90;;;;;;5021558;28;20189;-83
2022/11/28 11:08:27;;;;;;;10.60;9.60;;;7.30;99.90;;;;;;5020310;28;20182;-82
2022/11/28 11:11:30;;;;;;;10.43;9.43;;;7.30;99.90;;;;;;5021574;28;20189;-83
2022/11/28 11:14:09;;;;;;;11.23;9.30;;;7.20;99.90;;;;;;5020982;28;20205;-83
2022/11/28 11:16:52;;;;;;;11.27;9.70;;;7.20;99.90;;;;;;5022491;28;20319;-84
2022/11/28 11:19:38;;;;;;;9.87;8.93;;;7.10;99.90;;;;;;5026081;28;20197;-84
2022/11/28 11:22:17;;;;;;;10.27;9.27;;;7.20;99.90;;;;;;5026749;28;20271;-82
2022/11/28 11:24:44;;;;;;;10.60;8.93;;;7.30;99.90;;;;;;5031641;28;20173;-84
2022/11/28 11:27:20;;;;;;;9.30;8.43;;;7.30;99.90;;;;;;5036413;28;20232;-83
2022/11/28 11:29:46;;;;;;;9.90;9.10;;;7.50;99.90;;;;;;5029822;28;20178;-82
2022/11/28 11:32:25;;;;;;;10.07;9.07;;;7.50;99.90;;;;;;5024997;28;20646;-82
2022/11/28 11:34:52;;;;;;;10.73;9.63;;;7.60;99.90;;;;;;5019814;28;20622;-82
2022/11/28 11:37:41;;;;;;;14.07;10.73;;;7.60;99.90;;;;;;5024034;28;20192;-84
2022/11/28 11:40:19;;;;;;;11.77;10.57;;;7.50;99.90;;;;;;5021874;28;20193;-82
2022/11/28 11:43:00;;;;;;;11.53;9.70;;;7.60;99.90;;;;;;5022941;28;20220;-81
2022/11/28 11:45:32;;;;;;;11.13;10.00;;;7.70;99.90;;;;;;5022544;28;20251;-82
2022/11/28 11:48:01;;;;;;;10.87;9.80;;;7.70;99.90;;;;;;5023948;28;20185;-81
2022/11/28 11:50:35;;;;;;;11.23;10.13;;;7.70;99.90;;;;;;5023013;28;20217;-82
2022/11/28 11:53:09;;;;;;;10.67;9.60;;;7.80;99.90;;;;;;5022142;28;20197;-83
2022/11/28 11:55:53;;;;;;;11.20;9.80;;;7.80;99.90;;;;;;5018314;28;20509;-83
2022/11/28 11:58:47;;;;;;;11.83;10.63;;;8.00;99.90;;;;;;5018168;28;20189;-83
2022/11/28 12:01:17;;;;;;;11.63;10.43;;;8.10;99.90;;;;;;5022969;28;20217;-83
2022/11/28 12:04:03;;;;;;;11.30;10.20;;;8.00;99.90;;;;;;5021887;28;20182;-83
2022/11/28 12:06:38;;;;;;;11.73;10.53;;;8.10;99.90;;;;;;5020095;28;20553;-83
2022/11/28 12:09:16;;;;;;;12.27;11.03;;;8.20;99.90;;;;;;5018360;28;20182;-82
2022/11/28 12:11:51;;;;;;;11.43;10.37;;;8.30;99.90;;;;;;5022107;28;20221;-82
2022/11/28 12:14:28;;;;;;;13.13;10.77;;;8.20;99.90;;;;;;5023301;28;20200;-82
2022/11/28 12:17:15;;;;;;;15.57;10.70;;;8.20;99.90;;;;;;5005130;28;20243;-82
2022/11/28 12:19:59;;;;;;;12.33;11.13;;;8.20;99.90;;;;;;5003887;28;20197;-82
2022/11/28 12:22:45;;;;;;;11.10;10.07;;;8.20;99.90;;;;;;5023930;28;20749;-81
2022/11/28 12:25:40;;;;;;;10.70;9.60;;;8.40;99.90;;;;;;5018694;28;20201;-82
2022/11/28 12:28:39;;;;;;;10.97;9.87;;;8.60;99.90;;;;;;5023024;28;20185;-83
2022/11/28 12:31:14;;;;;;;12.27;9.60;;;8.70;99.90;;;;;;5025196;28;20222;-83
2022/11/28 12:33:50;;;;;;;11.43;10.17;;;8.80;99.90;;;;;;5024639;28;20202;-82
2022/11/28 12:36:33;;;;;;;11.10;10.03;;;8.80;99.90;;;;;;5021568;28;20187;-82
2022/11/28 12:39:08;;;;;;;12.43;10.93;;;8.80;99.90;;;;;;5015564;28;20183;-82
2022/11/28 12:41:55;;;;;;;11.00;9.90;;;8.70;99.90;;;;;;5017587;28;20224;-81
2022/11/28 12:44:51;;;;;;;9.83;8.90;;;8.80;99.90;;;;;;5018812;28;20282;-81
2022/11/28 12:47:27;;;;;;;11.63;10.47;;;9.00;99.90;;;;;;5020676;28;20186;-82
2022/11/28 12:50:01;;;;;;;11.63;10.43;;;9.10;99.90;;;;;;5020942;28;20189;-83
2022/11/28 12:52:34;;;;;;;11.13;10.13;;;9.30;99.40;;;;;;5022929;28;20208;-82
2022/11/28 12:55:12;;;;;;;10.67;9.33;;;9.30;98.10;;;;;;5023168;28;20621;-80
2022/11/28 12:57:53;;;;;;;10.40;9.37;;;9.30;98.80;;;;;;5017163;28;20183;-84
2022/11/28 13:00:24;;;;;;;11.07;10.07;;;9.20;99.90;;;;;;5020398;28;20183;-83
2022/11/28 13:03:22;;;;;;;12.13;10.93;;;9.20;99.90;;;;;;5022943;28;20267;-82